sensor_id;sensor_type;location;lat;lon;timestamp;pressure;altitude;pressure_sealevel;temperature;humidity
21011;BME280;10663;42.714;23.274;2023-12-22T00:00:07;93308.41;;;1.70;87.11
21011;BME280;10663;42.714;23.274;2023-12-22T00:01:38;93306.84;;;1.74;86.59
21011;BME280;10663;42.714;23.274;2023-12-22T00:03:09;93305.00;;;1.69;86.44
21011;BME280;10663;42.714;23.274;2023-12-22T00:04:40;93305.78;;;1.70;86.78
21011;BME280;10663;42.714;23.274;2023-12-22T00:06:10;93312.97;;;1.84;86.18
21011;BME280;10663;42.714;23.274;2023-12-22T00:07:42;93295.25;;;1.86;86.94
21011;BME280;10663;42.714;23.274;2023-12-22T00:09:12;93302.78;;;1.83;86.26
21011;BME280;10663;42.714;23.274;2023-12-22T00:10:43;93289.84;;;1.93;85.81
21011;BME280;10663;42.714;23.274;2023-12-22T00:12:14;93288.25;;;1.92;85.83
21011;BME280;10663;42.714;23.274;2023-12-22T00:13:45;93287.31;;;1.98;85.45
21011;BME280;10663;42.714;23.274;2023-12-22T00:15:15;93290.19;;;2.02;85.65
21011;BME280;10663;42.714;23.274;2023-12-22T00:16:46;93281.16;;;2.09;85.39
21011;BME280;10663;42.714;23.274;2023-12-22T00:18:16;93284.28;;;2.11;85.07
21011;BME280;10663;42.714;23.274;2023-12-22T00:19:47;93278.53;;;2.09;85.04
21011;BME280;10663;42.714;23.274;2023-12-22T00:21:18;93275.41;;;2.12;85.07
21011;BME280;10663;42.714;23.274;2023-12-22T00:22:49;93276.16;;;2.08;85.20
21011;BME280;10663;42.714;23.274;2023-12-22T00:24:19;93271.44;;;2.05;85.36
21011;BME280;10663;42.714;23.274;2023-12-22T00:25:50;93269.47;;;1.90;85.66
21011;BME280;10663;42.714;23.274;2023-12-22T00:27:21;93277.19;;;1.80;85.94
21011;BME280;10663;42.714;23.274;2023-12-22T00:28:51;93268.38;;;1.86;85.90
21011;BME280;10663;42.714;23.274;2023-12-22T00:30:22;93268.59;;;1.79;86.96
21011;BME280;10663;42.714;23.274;2023-12-22T00:31:54;93255.56;;;1.84;86.52
21011;BME280;10663;42.714;23.274;2023-12-22T00:33:26;93248.97;;;1.77;86.86
21011;BME280;10663;42.714;23.274;2023-12-22T00:34:56;93257.84;;;1.76;86.97
21011;BME280;10663;42.714;23.274;2023-12-22T00:36:28;93261.09;;;1.88;87.12
21011;BME280;10663;42.714;23.274;2023-12-22T00:37:59;93252.63;;;1.76;87.70
21011;BME280;10663;42.714;23.274;2023-12-22T00:39:30;93252.38;;;1.77;87.86
21011;BME280;10663;42.714;23.274;2023-12-22T00:41:01;93252.38;;;1.77;87.16
21011;BME280;10663;42.714;23.274;2023-12-22T00:42:32;93251.03;;;1.75;87.77
21011;BME280;10663;42.714;23.274;2023-12-22T00:44:03;93251.91;;;1.80;87.70
21011;BME280;10663;42.714;23.274;2023-12-22T00:45:34;93252.00;;;1.91;87.15
21011;BME280;10663;42.714;23.274;2023-12-22T00:47:04;93247.25;;;1.87;87.43
21011;BME280;10663;42.714;23.274;2023-12-22T00:48:35;93253.81;;;1.90;87.11
21011;BME280;10663;42.714;23.274;2023-12-22T00:50:06;93262.22;;;1.97;87.07
21011;BME280;10663;42.714;23.274;2023-12-22T00:51:38;93253.63;;;1.97;86.90
21011;BME280;10663;42.714;23.274;2023-12-22T00:53:09;93251.25;;;1.95;87.29
21011;BME280;10663;42.714;23.274;2023-12-22T00:54:40;93252.38;;;2.04;86.76
21011;BME280;10663;42.714;23.274;2023-12-22T00:56:11;93235.91;;;2.04;87.26
21011;BME280;10663;42.714;23.274;2023-12-22T00:57:43;93239.00;;;2.01;87.66
21011;BME280;10663;42.714;23.274;2023-12-22T00:59:14;93246.41;;;2.09;87.30
21011;BME280;10663;42.714;23.274;2023-12-22T01:00:45;93237.59;;;2.15;87.00
21011;BME280;10663;42.714;23.274;2023-12-22T01:02:16;93246.75;;;2.17;86.95
21011;BME280;10663;42.714;23.274;2023-12-22T01:03:47;93241.91;;;1.99;87.11
21011;BME280;10663;42.714;23.274;2023-12-22T01:05:17;93243.50;;;2.05;87.26
21011;BME280;10663;42.714;23.274;2023-12-22T01:06:48;93239.38;;;2.09;87.04
21011;BME280;10663;42.714;23.274;2023-12-22T01:08:19;93247.00;;;2.16;86.46
21011;BME280;10663;42.714;23.274;2023-12-22T01:09:51;93244.16;;;2.17;86.00
21011;BME280;10663;42.714;23.274;2023-12-22T01:11:21;93243.47;;;2.32;85.77
21011;BME280;10663;42.714;23.274;2023-12-22T01:12:52;93241.56;;;2.54;84.76
21011;BME280;10663;42.714;23.274;2023-12-22T01:14:23;93241.72;;;2.43;84.96
21011;BME280;10663;42.714;23.274;2023-12-22T01:15:53;93238.66;;;2.51;84.84
21011;BME280;10663;42.714;23.274;2023-12-22T01:17:24;93240.25;;;2.57;84.77
21011;BME280;10663;42.714;23.274;2023-12-22T01:18:55;93240.78;;;2.59;84.71
21011;BME280;10663;42.714;23.274;2023-12-22T01:20:26;93234.78;;;2.58;84.29
21011;BME280;10663;42.714;23.274;2023-12-22T01:21:56;93234.00;;;2.58;83.61
21011;BME280;10663;42.714;23.274;2023-12-22T01:23:27;93239.75;;;2.60;83.75
21011;BME280;10663;42.714;23.274;2023-12-22T01:24:58;93236.25;;;2.44;85.01
21011;BME280;10663;42.714;23.274;2023-12-22T01:26:28;93245.22;;;2.53;84.50
21011;BME280;10663;42.714;23.274;2023-12-22T01:27:59;93236.00;;;2.46;84.13
21011;BME280;10663;42.714;23.274;2023-12-22T01:29:30;93230.03;;;2.55;84.45
21011;BME280;10663;42.714;23.274;2023-12-22T01:31:02;93227.97;;;2.52;84.63
21011;BME280;10663;42.714;23.274;2023-12-22T01:32:32;93221.06;;;2.41;85.71
21011;BME280;10663;42.714;23.274;2023-12-22T01:34:06;93213.97;;;2.32;85.53
21011;BME280;10663;42.714;23.274;2023-12-22T01:35:37;93212.94;;;2.38;85.67
21011;BME280;10663;42.714;23.274;2023-12-22T01:37:09;93212.47;;;2.41;84.99
21011;BME280;10663;42.714;23.274;2023-12-22T01:38:40;93210.66;;;2.46;84.67
21011;BME280;10663;42.714;23.274;2023-12-22T01:40:10;93209.53;;;2.37;86.05
21011;BME280;10663;42.714;23.274;2023-12-22T01:41:41;93214.00;;;2.37;86.42
21011;BME280;10663;42.714;23.274;2023-12-22T01:43:12;93206.94;;;2.37;86.10
21011;BME280;10663;42.714;23.274;2023-12-22T01:44:45;93192.75;;;2.28;86.32
21011;BME280;10663;42.714;23.274;2023-12-22T01:46:15;93193.06;;;2.32;85.99
21011;BME280;10663;42.714;23.274;2023-12-22T01:47:47;93198.91;;;2.44;85.68
21011;BME280;10663;42.714;23.274;2023-12-22T01:49:19;93183.50;;;2.47;85.02
21011;BME280;10663;42.714;23.274;2023-12-22T01:50:53;93199.47;;;2.51;84.66
21011;BME280;10663;42.714;23.274;2023-12-22T01:52:25;93198.38;;;2.47;84.78
21011;BME280;10663;42.714;23.274;2023-12-22T01:53:57;93196.28;;;2.44;85.64
21011;BME280;10663;42.714;23.274;2023-12-22T01:55:27;93186.09;;;2.42;85.52
21011;BME280;10663;42.714;23.274;2023-12-22T01:56:58;93187.19;;;2.51;85.86
21011;BME280;10663;42.714;23.274;2023-12-22T01:58:30;93187.69;;;2.48;84.95
21011;BME280;10663;42.714;23.274;2023-12-22T02:00:10;93183.00;;;2.50;85.36
21011;BME280;10663;42.714;23.274;2023-12-22T02:01:44;93185.78;;;2.39;84.98
21011;BME280;10663;42.714;23.274;2023-12-22T02:03:16;93194.25;;;2.56;84.76
21011;BME280;10663;42.714;23.274;2023-12-22T02:04:47;93188.53;;;2.54;84.85
21011;BME280;10663;42.714;23.274;2023-12-22T02:06:19;93191.88;;;2.49;84.73
21011;BME280;10663;42.714;23.274;2023-12-22T02:07:50;93189.34;;;2.64;84.09
21011;BME280;10663;42.714;23.274;2023-12-22T02:09:21;93191.44;;;2.62;84.38
21011;BME280;10663;42.714;23.274;2023-12-22T02:10:52;93192.13;;;2.48;84.77
21011;BME280;10663;42.714;23.274;2023-12-22T02:12:22;93179.09;;;2.53;84.37
21011;BME280;10663;42.714;23.274;2023-12-22T02:13:53;93175.22;;;2.60;84.26
21011;BME280;10663;42.714;23.274;2023-12-22T02:15:24;93174.38;;;2.50;84.50
21011;BME280;10663;42.714;23.274;2023-12-22T02:18:55;93171.69;;;2.40;85.44
21011;BME280;10663;42.714;23.274;2023-12-22T02:20:27;93169.31;;;2.33;85.72
21011;BME280;10663;42.714;23.274;2023-12-22T02:22:08;93178.56;;;2.09;86.08
21011;BME280;10663;42.714;23.274;2023-12-22T02:23:39;93172.41;;;2.25;86.06
21011;BME280;10663;42.714;23.274;2023-12-22T02:25:10;93170.56;;;2.25;85.78
21011;BME280;10663;42.714;23.274;2023-12-22T02:26:43;93164.25;;;2.16;85.46
21011;BME280;10663;42.714;23.274;2023-12-22T02:28:17;93161.63;;;2.16;85.75
21011;BME280;10663;42.714;23.274;2023-12-22T02:31:14;93166.38;;;2.24;85.35
21011;BME280;10663;42.714;23.274;2023-12-22T02:32:17;93170.34;;;2.32;85.65
21011;BME280;10663;42.714;23.274;2023-12-22T02:33:51;93177.16;;;2.33;84.93
21011;BME280;10663;42.714;23.274;2023-12-22T02:35:25;93182.63;;;2.32;85.67
21011;BME280;10663;42.714;23.274;2023-12-22T02:36:56;93182.13;;;2.35;85.55
21011;BME280;10663;42.714;23.274;2023-12-22T02:38:28;93175.88;;;2.36;85.12
21011;BME280;10663;42.714;23.274;2023-12-22T02:40:00;93166.63;;;2.23;86.09
21011;BME280;10663;42.714;23.274;2023-12-22T02:41:32;93176.03;;;2.24;86.29
21011;BME280;10663;42.714;23.274;2023-12-22T02:43:05;93180.00;;;2.32;86.04
21011;BME280;10663;42.714;23.274;2023-12-22T02:44:37;93170.19;;;2.07;86.99
21011;BME280;10663;42.714;23.274;2023-12-22T02:46:14;93171.78;;;2.13;87.06
21011;BME280;10663;42.714;23.274;2023-12-22T02:47:46;93173.66;;;2.17;86.09
21011;BME280;10663;42.714;23.274;2023-12-22T02:49:17;93170.53;;;2.20;86.71
21011;BME280;10663;42.714;23.274;2023-12-22T02:50:49;93155.94;;;2.24;86.16
21011;BME280;10663;42.714;23.274;2023-12-22T02:52:20;93150.50;;;2.31;86.46
21011;BME280;10663;42.714;23.274;2023-12-22T02:53:51;93142.91;;;2.30;86.48
21011;BME280;10663;42.714;23.274;2023-12-22T02:55:22;93154.94;;;2.31;85.96
21011;BME280;10663;42.714;23.274;2023-12-22T02:56:52;93140.88;;;2.37;85.79
21011;BME280;10663;42.714;23.274;2023-12-22T02:58:24;93140.59;;;2.33;85.75
21011;BME280;10663;42.714;23.274;2023-12-22T02:59:54;93138.78;;;2.34;85.98
21011;BME280;10663;42.714;23.274;2023-12-22T03:01:25;93127.69;;;2.16;85.51
21011;BME280;10663;42.714;23.274;2023-12-22T03:02:56;93142.97;;;2.40;85.33
21011;BME280;10663;42.714;23.274;2023-12-22T03:04:26;93141.22;;;2.50;84.63
21011;BME280;10663;42.714;23.274;2023-12-22T03:05:57;93139.31;;;2.41;84.92
21011;BME280;10663;42.714;23.274;2023-12-22T03:07:28;93149.28;;;2.44;85.13
21011;BME280;10663;42.714;23.274;2023-12-22T03:08:58;93141.16;;;2.40;85.63
21011;BME280;10663;42.714;23.274;2023-12-22T03:10:29;93146.63;;;2.39;85.28
21011;BME280;10663;42.714;23.274;2023-12-22T03:12:00;93143.75;;;2.40;85.39
21011;BME280;10663;42.714;23.274;2023-12-22T03:13:34;93147.47;;;2.44;85.63
21011;BME280;10663;42.714;23.274;2023-12-22T03:15:05;93151.06;;;2.38;85.89
21011;BME280;10663;42.714;23.274;2023-12-22T03:16:36;93154.50;;;2.44;85.84
21011;BME280;10663;42.714;23.274;2023-12-22T03:18:07;93143.75;;;2.35;85.89
21011;BME280;10663;42.714;23.274;2023-12-22T03:19:39;93155.44;;;2.28;86.64
21011;BME280;10663;42.714;23.274;2023-12-22T03:21:16;93146.91;;;2.42;85.70
21011;BME280;10663;42.714;23.274;2023-12-22T03:22:48;93149.47;;;2.37;86.02
21011;BME280;10663;42.714;23.274;2023-12-22T03:24:18;93153.16;;;2.36;86.45
21011;BME280;10663;42.714;23.274;2023-12-22T03:25:49;93151.09;;;2.43;85.87
21011;BME280;10663;42.714;23.274;2023-12-22T03:27:21;93157.59;;;2.36;86.69
21011;BME280;10663;42.714;23.274;2023-12-22T03:28:52;93156.34;;;2.11;86.71
21011;BME280;10663;42.714;23.274;2023-12-22T03:30:23;93153.34;;;2.30;86.88
21011;BME280;10663;42.714;23.274;2023-12-22T03:31:53;93156.75;;;2.30;86.63
21011;BME280;10663;42.714;23.274;2023-12-22T03:33:24;93157.75;;;2.24;86.73
21011;BME280;10663;42.714;23.274;2023-12-22T03:34:55;93155.56;;;2.11;87.20
21011;BME280;10663;42.714;23.274;2023-12-22T03:36:25;93147.06;;;2.25;86.88
21011;BME280;10663;42.714;23.274;2023-12-22T03:37:56;93141.53;;;2.17;87.77
21011;BME280;10663;42.714;23.274;2023-12-22T03:39:27;93142.84;;;2.19;86.54
21011;BME280;10663;42.714;23.274;2023-12-22T03:40:57;93134.81;;;2.26;86.79
21011;BME280;10663;42.714;23.274;2023-12-22T03:42:28;93140.81;;;2.27;86.66
21011;BME280;10663;42.714;23.274;2023-12-22T03:43:59;93136.94;;;2.34;86.42
21011;BME280;10663;42.714;23.274;2023-12-22T03:45:29;93140.41;;;2.50;85.54
21011;BME280;10663;42.714;23.274;2023-12-22T03:47:00;93137.78;;;2.45;86.28
21011;BME280;10663;42.714;23.274;2023-12-22T03:48:31;93135.97;;;2.45;86.23
21011;BME280;10663;42.714;23.274;2023-12-22T03:50:01;93134.66;;;2.48;85.61
21011;BME280;10663;42.714;23.274;2023-12-22T03:51:32;93137.81;;;2.50;86.17
21011;BME280;10663;42.714;23.274;2023-12-22T03:53:03;93139.38;;;2.46;86.64
21011;BME280;10663;42.714;23.274;2023-12-22T03:54:33;93140.91;;;2.42;87.14
21011;BME280;10663;42.714;23.274;2023-12-22T03:56:04;93138.31;;;2.47;86.56
21011;BME280;10663;42.714;23.274;2023-12-22T03:57:37;93135.44;;;2.43;86.81
21011;BME280;10663;42.714;23.274;2023-12-22T03:59:08;93133.13;;;2.57;85.58
21011;BME280;10663;42.714;23.274;2023-12-22T04:00:39;93139.22;;;2.68;85.37
21011;BME280;10663;42.714;23.274;2023-12-22T04:02:09;93139.69;;;2.64;85.28
21011;BME280;10663;42.714;23.274;2023-12-22T04:03:40;93139.16;;;2.57;85.30
21011;BME280;10663;42.714;23.274;2023-12-22T04:05:11;93140.00;;;2.68;85.69
21011;BME280;10663;42.714;23.274;2023-12-22T04:06:42;93137.63;;;2.67;85.49
21011;BME280;10663;42.714;23.274;2023-12-22T04:08:13;93138.66;;;2.60;86.06
21011;BME280;10663;42.714;23.274;2023-12-22T04:09:43;93139.69;;;2.64;86.02
21011;BME280;10663;42.714;23.274;2023-12-22T04:11:14;93147.03;;;2.62;86.05
21011;BME280;10663;42.714;23.274;2023-12-22T04:12:45;93142.84;;;2.67;86.51
21011;BME280;10663;42.714;23.274;2023-12-22T04:14:15;93144.16;;;2.64;86.64
21011;BME280;10663;42.714;23.274;2023-12-22T04:15:47;93142.34;;;2.70;86.39
21011;BME280;10663;42.714;23.274;2023-12-22T04:17:17;93140.50;;;2.65;86.76
21011;BME280;10663;42.714;23.274;2023-12-22T04:18:48;93150.44;;;2.63;86.69
21011;BME280;10663;42.714;23.274;2023-12-22T04:20:19;93144.44;;;2.68;86.39
21011;BME280;10663;42.714;23.274;2023-12-22T04:21:49;93148.38;;;2.75;86.40
21011;BME280;10663;42.714;23.274;2023-12-22T04:23:20;93133.75;;;2.74;85.88
21011;BME280;10663;42.714;23.274;2023-12-22T04:24:51;93146.06;;;2.84;85.62
21011;BME280;10663;42.714;23.274;2023-12-22T04:26:22;93144.19;;;2.74;86.07
21011;BME280;10663;42.714;23.274;2023-12-22T04:27:52;93132.50;;;2.82;85.57
21011;BME280;10663;42.714;23.274;2023-12-22T04:29:23;93125.72;;;2.91;85.22
21011;BME280;10663;42.714;23.274;2023-12-22T04:30:54;93123.88;;;2.91;86.08
21011;BME280;10663;42.714;23.274;2023-12-22T04:32:24;93121.06;;;3.03;85.47
21011;BME280;10663;42.714;23.274;2023-12-22T04:33:55;93126.28;;;2.98;86.03
21011;BME280;10663;42.714;23.274;2023-12-22T04:35:26;93132.25;;;2.93;85.68
21011;BME280;10663;42.714;23.274;2023-12-22T04:36:56;93130.72;;;2.97;85.74
21011;BME280;10663;42.714;23.274;2023-12-22T04:38:27;93126.28;;;2.98;86.38
21011;BME280;10663;42.714;23.274;2023-12-22T04:39:58;93116.34;;;3.00;85.96
21011;BME280;10663;42.714;23.274;2023-12-22T04:41:28;93119.47;;;3.02;85.62
21011;BME280;10663;42.714;23.274;2023-12-22T04:42:59;93122.09;;;3.02;85.87
21011;BME280;10663;42.714;23.274;2023-12-22T04:44:30;93116.84;;;2.97;86.61
21011;BME280;10663;42.714;23.274;2023-12-22T04:46:00;93112.19;;;3.14;85.70
21011;BME280;10663;42.714;23.274;2023-12-22T04:47:31;93112.44;;;3.13;85.22
21011;BME280;10663;42.714;23.274;2023-12-22T04:49:02;93111.38;;;3.04;85.12
21011;BME280;10663;42.714;23.274;2023-12-22T04:50:33;93110.13;;;3.16;85.46
21011;BME280;10663;42.714;23.274;2023-12-22T04:52:03;93100.41;;;3.07;85.64
21011;BME280;10663;42.714;23.274;2023-12-22T04:53:34;93112.41;;;2.97;86.39
21011;BME280;10663;42.714;23.274;2023-12-22T04:55:05;93115.06;;;3.13;86.29
21011;BME280;10663;42.714;23.274;2023-12-22T04:56:36;93114.56;;;3.16;86.51
21011;BME280;10663;42.714;23.274;2023-12-22T04:58:06;93111.91;;;3.06;86.16
21011;BME280;10663;42.714;23.274;2023-12-22T04:59:37;93104.81;;;2.91;87.10
21011;BME280;10663;42.714;23.274;2023-12-22T05:01:08;93102.97;;;2.91;87.87
21011;BME280;10663;42.714;23.274;2023-12-22T05:02:38;93104.03;;;2.95;88.48
21011;BME280;10663;42.714;23.274;2023-12-22T05:04:09;93094.34;;;2.81;88.41
21011;BME280;10663;42.714;23.274;2023-12-22T05:05:40;93097.22;;;2.89;88.39
21011;BME280;10663;42.714;23.274;2023-12-22T05:07:11;93093.59;;;2.95;88.30
21011;BME280;10663;42.714;23.274;2023-12-22T05:08:42;93096.72;;;2.97;88.26
21011;BME280;10663;42.714;23.274;2023-12-22T05:10:16;93098.59;;;3.07;89.39
21011;BME280;10663;42.714;23.274;2023-12-22T05:11:49;93093.66;;;3.31;91.18
21011;BME280;10663;42.714;23.274;2023-12-22T05:13:20;93090.25;;;3.20;89.41
21011;BME280;10663;42.714;23.274;2023-12-22T05:14:51;93098.91;;;3.26;90.16
21011;BME280;10663;42.714;23.274;2023-12-22T05:16:21;93093.69;;;3.46;89.17
21011;BME280;10663;42.714;23.274;2023-12-22T05:17:52;93087.09;;;3.13;89.24
21011;BME280;10663;42.714;23.274;2023-12-22T05:19:23;93093.41;;;3.32;91.63
21011;BME280;10663;42.714;23.274;2023-12-22T05:20:54;93091.06;;;3.26;90.30
21011;BME280;10663;42.714;23.274;2023-12-22T05:22:24;93089.19;;;3.21;89.20
21011;BME280;10663;42.714;23.274;2023-12-22T05:23:56;93106.19;;;3.14;89.39
21011;BME280;10663;42.714;23.274;2023-12-22T05:25:27;93099.34;;;3.03;89.45
21011;BME280;10663;42.714;23.274;2023-12-22T05:26:57;93106.69;;;3.06;89.95
21011;BME280;10663;42.714;23.274;2023-12-22T05:28:28;93109.78;;;2.92;90.75
21011;BME280;10663;42.714;23.274;2023-12-22T05:29:59;93115.31;;;3.06;91.58
21011;BME280;10663;42.714;23.274;2023-12-22T05:31:32;93104.81;;;2.91;92.15
21011;BME280;10663;42.714;23.274;2023-12-22T05:33:04;93112.16;;;2.99;92.11
21011;BME280;10663;42.714;23.274;2023-12-22T05:34:35;93113.50;;;3.07;91.85
21011;BME280;10663;42.714;23.274;2023-12-22T05:36:07;93103.56;;;3.09;91.75
21011;BME280;10663;42.714;23.274;2023-12-22T05:37:38;93116.69;;;3.24;92.05
21011;BME280;10663;42.714;23.274;2023-12-22T05:39:08;93100.66;;;3.10;92.57
21011;BME280;10663;42.714;23.274;2023-12-22T05:40:40;93099.91;;;3.20;92.47
21011;BME280;10663;42.714;23.274;2023-12-22T05:42:11;93096.28;;;3.31;92.46
21011;BME280;10663;42.714;23.274;2023-12-22T05:43:42;93103.09;;;3.37;92.07
21011;BME280;10663;42.714;23.274;2023-12-22T05:45:14;93089.00;;;3.43;91.45
21011;BME280;10663;42.714;23.274;2023-12-22T05:46:45;93098.66;;;3.48;91.58
21011;BME280;10663;42.714;23.274;2023-12-22T05:48:15;93088.72;;;3.34;91.62
21011;BME280;10663;42.714;23.274;2023-12-22T05:49:46;93095.25;;;3.42;92.08
21011;BME280;10663;42.714;23.274;2023-12-22T05:51:17;93099.72;;;3.62;91.73
21011;BME280;10663;42.714;23.274;2023-12-22T05:52:48;93089.78;;;3.69;92.03
21011;BME280;10663;42.714;23.274;2023-12-22T05:54:19;93099.72;;;3.77;92.19
21011;BME280;10663;42.714;23.274;2023-12-22T05:55:50;93097.66;;;3.64;91.68
21011;BME280;10663;42.714;23.274;2023-12-22T05:57:21;93093.19;;;3.54;91.58
21011;BME280;10663;42.714;23.274;2023-12-22T05:58:52;93087.13;;;3.28;91.54
21011;BME280;10663;42.714;23.274;2023-12-22T06:00:22;93088.41;;;3.16;93.17
21011;BME280;10663;42.714;23.274;2023-12-22T06:01:53;93083.13;;;2.95;94.32
21011;BME280;10663;42.714;23.274;2023-12-22T06:03:24;93098.81;;;2.90;94.83
21011;BME280;10663;42.714;23.274;2023-12-22T06:04:55;93093.66;;;3.16;94.19
21011;BME280;10663;42.714;23.274;2023-12-22T06:06:26;93091.22;;;2.94;94.87
21011;BME280;10663;42.714;23.274;2023-12-22T06:07:58;93095.44;;;3.05;94.91
21011;BME280;10663;42.714;23.274;2023-12-22T06:09:28;93098.63;;;3.22;94.33
21011;BME280;10663;42.714;23.274;2023-12-22T06:10:59;93100.69;;;3.15;94.57
21011;BME280;10663;42.714;23.274;2023-12-22T06:12:30;93101.25;;;3.37;94.53
21011;BME280;10663;42.714;23.274;2023-12-22T06:14:01;93097.06;;;3.26;94.26
21011;BME280;10663;42.714;23.274;2023-12-22T06:15:32;93094.47;;;3.42;94.13
21011;BME280;10663;42.714;23.274;2023-12-22T06:17:03;93090.81;;;3.48;93.91
21011;BME280;10663;42.714;23.274;2023-12-22T06:18:33;93100.25;;;3.59;93.79
21011;BME280;10663;42.714;23.274;2023-12-22T06:20:04;93107.56;;;3.52;93.75
